createdAt,value
2018-09-16T00:02:12.018Z,4.40
2018-09-16T00:04:40.849Z,7.50
2018-09-16T00:07:09.468Z,5.37
2018-09-16T00:09:38.347Z,5.73
2018-09-16T00:12:07.464Z,8.43
2018-09-16T00:14:36.313Z,7.83
2018-09-16T00:17:05.293Z,8.57
2018-09-16T00:19:33.785Z,7.43
2018-09-16T00:22:02.670Z,6.37
2018-09-16T00:24:31.074Z,7.20
2018-09-16T00:27:01.011Z,7.07
2018-09-16T00:29:29.848Z,6.47
2018-09-16T00:32:04.075Z,7.50
2018-09-16T00:34:32.918Z,8.00
2018-09-16T00:37:01.911Z,6.47
2018-09-16T00:39:30.745Z,7.30
2018-09-16T00:41:59.695Z,6.50
2018-09-16T00:44:28.538Z,7.87
2018-09-16T00:46:57.456Z,4.03
2018-09-16T00:49:25.883Z,6.50
2018-09-16T00:51:54.887Z,6.50
2018-09-16T00:54:23.332Z,4.50
2018-09-16T00:56:53.290Z,8.40
2018-09-16T00:59:21.727Z,7.63
2018-09-16T01:01:50.824Z,5.07
2018-09-16T01:04:19.246Z,6.10
2018-09-16T01:06:47.814Z,4.80
2018-09-16T01:09:16.766Z,6.03
2018-09-16T01:11:45.769Z,6.23
2018-09-16T01:14:14.620Z,6.10
2018-09-16T01:16:43.207Z,6.40
2018-09-16T01:19:12.520Z,7.00
2018-09-16T01:21:41.646Z,6.10
2018-09-16T01:24:10.136Z,6.20
2018-09-16T01:26:39.052Z,5.87
2018-09-16T01:29:07.888Z,7.20
2018-09-16T01:31:38.852Z,5.90
2018-09-16T01:34:07.288Z,6.03
2018-09-16T01:36:36.188Z,6.10
2018-09-16T01:39:06.987Z,4.73
2018-09-16T01:41:37.240Z,9.80
2018-09-16T01:44:06.034Z,5.00
2018-09-16T01:46:34.535Z,5.87
2018-09-16T01:49:02.994Z,7.00
2018-09-16T01:51:32.539Z,6.23
2018-09-16T01:54:01.415Z,3.83
2018-09-16T01:56:31.994Z,5.47
2018-09-16T01:59:00.461Z,5.30
2018-09-16T02:01:29.362Z,6.03
2018-09-16T02:03:57.816Z,6.33
2018-09-16T02:06:26.327Z,5.67
2018-09-16T02:08:55.230Z,7.23
2018-09-16T02:11:25.185Z,5.57
2018-09-16T02:13:53.629Z,4.70
2018-09-16T02:16:22.551Z,5.67
2018-09-16T02:18:51.248Z,6.73
2018-09-16T02:21:20.783Z,5.73
2018-09-16T02:23:49.608Z,5.60
2018-09-16T02:26:18.552Z,6.47
2018-09-16T02:28:47.197Z,6.33
2018-09-16T02:31:15.837Z,7.10
2018-09-16T02:33:44.657Z,7.17
2018-09-16T02:36:13.650Z,7.70
2018-09-16T02:38:42.739Z,6.00
2018-09-16T02:41:11.678Z,6.30
2018-09-16T02:43:40.526Z,5.13
2018-09-16T02:46:09.498Z,6.27
2018-09-16T02:48:38.326Z,6.30
2018-09-16T02:51:07.322Z,6.13
2018-09-16T02:53:36.177Z,6.00
2018-09-16T02:56:09.419Z,6.30
2018-09-16T02:58:38.329Z,8.43
2018-09-16T03:01:07.341Z,7.13
2018-09-16T03:03:36.227Z,7.63
2018-09-16T03:06:05.406Z,5.33
2018-09-16T03:08:33.874Z,8.63
2018-09-16T03:11:02.901Z,7.70
2018-09-16T03:13:31.314Z,4.93
2018-09-16T03:15:59.985Z,6.70
2018-09-16T03:18:28.429Z,4.47
2018-09-16T03:20:57.047Z,9.70
2018-09-16T03:23:25.952Z,9.90
2018-09-16T03:25:55.049Z,8.23
2018-09-16T03:28:23.468Z,6.67
2018-09-16T03:30:52.087Z,5.33
2018-09-16T03:33:20.925Z,4.60
2018-09-16T03:35:49.913Z,6.47
2018-09-16T03:38:18.399Z,5.50
2018-09-16T03:40:47.374Z,5.60
2018-09-16T03:43:16.237Z,8.23
2018-09-16T03:45:45.808Z,7.00
2018-09-16T03:48:14.950Z,5.67
2018-09-16T03:50:43.954Z,12.50
2018-09-16T03:53:12.421Z,5.70
2018-09-16T03:55:41.465Z,8.90
2018-09-16T03:58:09.877Z,5.20
2018-09-16T04:00:38.961Z,7.07
2018-09-16T04:03:07.860Z,5.30
2018-09-16T04:05:36.926Z,6.27
2018-09-16T04:08:06.248Z,5.47
2018-09-16T04:10:35.335Z,11.87
2018-09-16T04:13:03.741Z,7.57
2018-09-16T04:15:34.759Z,7.67
2018-09-16T04:18:03.581Z,7.43
2018-09-16T04:20:33.660Z,9.60
2018-09-16T04:23:02.187Z,9.10
2018-09-16T04:25:31.182Z,7.33
2018-09-16T04:28:00.049Z,8.73
2018-09-16T04:30:29.450Z,8.57
2018-09-16T04:32:58.320Z,10.07
2018-09-16T04:35:27.370Z,11.37
2018-09-16T04:37:56.232Z,8.30
2018-09-16T04:40:24.899Z,9.67
2018-09-16T04:42:53.788Z,9.67
2018-09-16T04:45:22.353Z,10.57
2018-09-16T04:47:51.159Z,7.93
2018-09-16T04:50:20.256Z,11.73
2018-09-16T04:52:49.193Z,11.50
2018-09-16T04:55:20.288Z,10.67
2018-09-16T04:57:48.725Z,10.57
2018-09-16T05:00:17.744Z,11.80
2018-09-16T05:02:46.159Z,7.63
2018-09-16T05:05:16.213Z,8.40
2018-09-16T05:07:45.055Z,8.77
2018-09-16T05:10:14.698Z,9.40
2018-09-16T05:12:43.176Z,9.30
2018-09-16T05:15:12.163Z,9.07
2018-09-16T05:17:41.022Z,11.53
2018-09-16T05:20:10.090Z,16.93
2018-09-16T05:22:38.999Z,10.93
2018-09-16T05:25:08.137Z,11.57
2018-09-16T05:27:37.012Z,8.23
2018-09-16T05:30:06.536Z,11.47
2018-09-16T05:32:35.416Z,8.27
2018-09-16T05:35:04.612Z,11.53
2018-09-16T05:37:33.652Z,10.13
2018-09-16T05:40:02.243Z,10.63
2018-09-16T05:42:31.469Z,8.57
2018-09-16T05:45:04.768Z,9.53
2018-09-16T05:47:33.666Z,11.13
2018-09-16T05:50:02.696Z,14.90
2018-09-16T05:52:31.125Z,10.17
2018-09-16T05:55:00.193Z,13.53
2018-09-16T05:57:29.038Z,11.13
2018-09-16T05:59:58.032Z,10.80
2018-09-16T06:02:26.949Z,11.27
2018-09-16T06:04:56.237Z,10.83
2018-09-16T06:07:25.133Z,14.90
2018-09-16T06:09:54.146Z,10.73
2018-09-16T06:12:22.987Z,9.47
2018-09-16T06:14:51.995Z,12.13
2018-09-16T06:17:20.940Z,14.57
2018-09-16T06:19:50.024Z,11.60
2018-09-16T06:22:18.897Z,16.43
2018-09-16T06:24:47.972Z,13.20
2018-09-16T06:27:16.824Z,10.77
2018-09-16T06:29:45.865Z,14.73
2018-09-16T06:32:14.814Z,15.60
2018-09-16T06:34:43.902Z,14.60
2018-09-16T06:37:13.125Z,16.50
2018-09-16T06:39:45.679Z,13.93
2018-09-16T06:42:14.181Z,12.53
2018-09-16T06:44:43.150Z,11.87
2018-09-16T06:47:12.021Z,11.73
2018-09-16T06:49:41.125Z,11.60
2018-09-16T06:52:10.109Z,12.73
2018-09-16T06:54:40.078Z,14.70
2018-09-16T06:57:08.909Z,10.87
2018-09-16T06:59:37.894Z,12.07
2018-09-16T07:02:06.858Z,15.10
2018-09-16T07:04:37.414Z,9.57
2018-09-16T07:07:06.375Z,14.57
2018-09-16T07:09:34.984Z,15.47
2018-09-16T07:12:03.850Z,12.83
2018-09-16T07:14:35.042Z,13.80
2018-09-16T07:17:03.882Z,13.37
2018-09-16T07:19:32.891Z,11.57
2018-09-16T07:22:01.737Z,14.07
2018-09-16T07:24:31.759Z,12.87
2018-09-16T07:27:00.659Z,10.77
2018-09-16T07:29:31.237Z,11.37
2018-09-16T07:32:00.550Z,10.60
2018-09-16T07:34:32.495Z,10.53
2018-09-16T07:37:00.998Z,10.67
2018-09-16T07:39:30.090Z,11.77
2018-09-16T07:41:58.963Z,8.97
2018-09-16T07:44:28.969Z,10.47
2018-09-16T07:46:57.966Z,10.50
2018-09-16T07:49:27.966Z,9.67
2018-09-16T07:51:56.845Z,12.60
2018-09-16T07:54:26.553Z,10.20
2018-09-16T07:56:55.492Z,10.80
2018-09-16T07:59:25.562Z,10.50
2018-09-16T08:01:55.193Z,11.80
2018-09-16T08:04:24.211Z,11.23
2018-09-16T08:06:53.129Z,14.80
2018-09-16T08:09:22.159Z,10.47
2018-09-16T08:11:50.981Z,12.47
2018-09-16T08:14:21.060Z,12.10
2018-09-16T08:16:49.949Z,12.17
2018-09-16T08:19:18.929Z,13.43
2018-09-16T08:21:47.853Z,12.60
2018-09-16T08:24:16.834Z,12.27
2018-09-16T08:26:45.800Z,10.53
2018-09-16T08:29:19.845Z,14.33
2018-09-16T08:31:48.716Z,15.80
2018-09-16T08:34:17.388Z,16.13
2018-09-16T08:36:46.305Z,11.33
2018-09-16T08:39:15.358Z,10.07
2018-09-16T08:41:44.239Z,9.80
2018-09-16T08:44:12.800Z,10.40
2018-09-16T08:46:41.887Z,8.83
2018-09-16T08:49:10.878Z,10.00
2018-09-16T08:51:39.784Z,9.60
2018-09-16T08:54:08.392Z,10.43
2018-09-16T08:56:37.244Z,8.13
2018-09-16T08:59:06.258Z,8.83
2018-09-16T09:01:34.700Z,6.20
2018-09-16T09:04:11.573Z,10.57
2018-09-16T09:06:40.466Z,6.67
2018-09-16T09:09:11.221Z,8.13
2018-09-16T09:11:40.682Z,9.10
2018-09-16T09:14:11.691Z,7.97
2018-09-16T09:16:40.310Z,6.57
2018-09-16T09:19:09.319Z,8.47
2018-09-16T09:21:38.166Z,6.90
2018-09-16T09:24:09.327Z,5.30
2018-09-16T09:26:38.330Z,8.93
2018-09-16T09:29:07.386Z,5.37
2018-09-16T09:31:36.805Z,7.50
2018-09-16T09:34:07.424Z,7.53
2018-09-16T09:36:36.109Z,3.77
2018-09-16T09:39:12.635Z,4.60
2018-09-16T09:41:41.545Z,7.63
2018-09-16T09:44:15.324Z,4.57
2018-09-16T09:46:44.182Z,4.80
2018-09-16T09:49:14.895Z,4.83
2018-09-16T09:51:43.761Z,5.27
2018-09-16T09:54:12.959Z,3.30
2018-09-16T09:56:42.549Z,6.13
2018-09-16T09:59:16.064Z,5.47
2018-09-16T10:01:44.891Z,6.73
2018-09-16T10:04:15.869Z,4.23
2018-09-16T10:06:45.324Z,5.63
2018-09-16T10:09:21.291Z,5.33
2018-09-16T10:11:50.146Z,4.30
2018-09-16T10:14:20.142Z,4.23
2018-09-16T10:16:48.659Z,5.93
2018-09-16T10:19:18.750Z,4.47
2018-09-16T10:21:47.634Z,5.13
2018-09-16T10:24:17.749Z,5.87
2018-09-16T10:26:46.652Z,4.90
2018-09-16T10:29:20.477Z,5.57
2018-09-16T10:31:49.421Z,5.87
2018-09-16T10:34:18.407Z,5.47
2018-09-16T10:36:46.945Z,5.80
2018-09-16T10:39:18.343Z,3.90
2018-09-16T10:41:47.432Z,4.30
2018-09-16T10:44:16.451Z,5.83
2018-09-16T10:46:45.118Z,2.77
2018-09-16T10:49:14.129Z,4.07
2018-09-16T10:51:42.976Z,5.80
2018-09-16T10:54:22.740Z,5.50
2018-09-16T10:56:51.565Z,6.43
2018-09-16T10:59:20.515Z,7.33
2018-09-16T11:01:49.788Z,3.63
2018-09-16T11:04:18.709Z,3.63
2018-09-16T11:06:47.113Z,2.47
2018-09-16T11:09:17.659Z,5.20
2018-09-16T11:11:46.518Z,1.77
2018-09-16T11:14:15.527Z,3.83
2018-09-16T11:16:44.337Z,4.33
2018-09-16T11:19:13.284Z,5.47
2018-09-16T11:21:42.191Z,2.87
2018-09-16T11:24:12.731Z,9.30
2018-09-16T11:26:41.849Z,3.73
2018-09-16T11:29:14.313Z,4.10
2018-09-16T11:31:43.584Z,5.80
2018-09-16T11:34:13.666Z,5.13
2018-09-16T11:36:42.138Z,6.00
2018-09-16T11:39:12.429Z,4.20
2018-09-16T11:41:41.310Z,5.77
2018-09-16T11:44:10.786Z,4.87
2018-09-16T11:46:41.244Z,5.17
2018-09-16T11:49:10.760Z,3.70
2018-09-16T11:51:40.787Z,4.43
2018-09-16T11:54:18.233Z,4.53
2018-09-16T11:56:47.253Z,4.67
2018-09-16T11:59:17.848Z,4.53
2018-09-16T12:01:48.184Z,7.63
2018-09-16T12:04:22.802Z,4.20
2018-09-16T12:06:52.355Z,6.07
2018-09-16T12:09:22.121Z,10.43
2018-09-16T12:11:50.646Z,4.23
2018-09-16T12:14:19.738Z,4.27
2018-09-16T12:16:48.207Z,5.40
2018-09-16T12:19:17.171Z,6.17
2018-09-16T12:21:48.197Z,4.17
2018-09-16T12:24:17.140Z,2.60
2018-09-16T12:26:47.122Z,6.20
2018-09-16T12:29:16.307Z,6.70
2018-09-16T12:31:45.209Z,4.13
2018-09-16T12:34:14.236Z,3.77
2018-09-16T12:36:43.206Z,4.30
2018-09-16T12:39:13.950Z,3.60
2018-09-16T12:41:43.289Z,5.00
2018-09-16T12:44:14.303Z,5.67
2018-09-16T12:46:43.194Z,5.37
2018-09-16T12:49:12.249Z,5.87
2018-09-16T12:51:41.143Z,3.90
2018-09-16T12:54:10.159Z,6.00
2018-09-16T12:56:38.675Z,7.63
2018-09-16T12:59:07.629Z,5.13
2018-09-16T13:01:38.596Z,5.67
2018-09-16T13:04:07.757Z,6.13
2018-09-16T13:06:36.715Z,5.07
2018-09-16T13:09:08.694Z,2.63
2018-09-16T13:11:37.690Z,6.30
2018-09-16T13:14:08.208Z,3.80
2018-09-16T13:16:36.663Z,5.33
2018-09-16T13:19:05.641Z,4.50
2018-09-16T13:21:34.557Z,4.30
2018-09-16T13:24:06.484Z,4.23
2018-09-16T13:26:35.057Z,3.23
2018-09-16T13:29:04.027Z,3.37
2018-09-16T13:31:33.180Z,2.23
2018-09-16T13:34:03.118Z,2.37
2018-09-16T13:36:32.020Z,5.60
2018-09-16T13:39:00.972Z,4.57
2018-09-16T13:41:29.853Z,4.57
2018-09-16T13:43:58.980Z,4.57
2018-09-16T13:46:27.379Z,2.77
2018-09-16T13:48:56.444Z,3.97
2018-09-16T13:51:24.958Z,4.83
2018-09-16T13:53:54.071Z,3.13
2018-09-16T13:56:22.598Z,5.43
2018-09-16T13:58:51.807Z,3.10
2018-09-16T14:01:20.700Z,4.60
2018-09-16T14:03:49.708Z,4.90
2018-09-16T14:06:18.576Z,4.40
2018-09-16T14:08:47.621Z,4.97
2018-09-16T14:11:16.875Z,4.03
2018-09-16T14:13:45.770Z,3.07
2018-09-16T14:16:14.676Z,5.60
2018-09-16T14:18:43.335Z,4.43
2018-09-16T14:21:11.824Z,3.40
2018-09-16T14:23:42.791Z,4.70
2018-09-16T14:26:12.499Z,2.63
2018-09-16T14:28:41.672Z,3.63
2018-09-16T14:31:10.176Z,2.40
2018-09-16T14:33:38.822Z,3.20
2018-09-16T14:36:07.273Z,3.30
2018-09-16T14:38:36.405Z,4.20
2018-09-16T14:41:04.873Z,7.00
2018-09-16T14:43:35.507Z,2.67
2018-09-16T14:46:06.475Z,3.47
2018-09-16T14:48:39.568Z,1.87
2018-09-16T14:51:08.863Z,3.20
2018-09-16T14:53:37.921Z,2.60
2018-09-16T14:56:06.815Z,2.17
2018-09-16T14:58:35.483Z,4.13
2018-09-16T15:01:04.377Z,2.67
2018-09-16T15:03:37.384Z,2.40
2018-09-16T15:06:05.904Z,3.00
2018-09-16T15:08:34.982Z,2.50
2018-09-16T15:11:03.447Z,3.03
2018-09-16T15:13:34.809Z,3.13
2018-09-16T15:16:03.810Z,3.83
2018-09-16T15:18:32.874Z,5.13
2018-09-16T15:21:01.801Z,2.97
2018-09-16T15:23:30.789Z,2.63
2018-09-16T15:25:59.649Z,2.43
2018-09-16T15:28:28.724Z,4.50
2018-09-16T15:30:57.580Z,1.63
2018-09-16T15:33:26.152Z,3.43
2018-09-16T15:35:55.038Z,4.17
2018-09-16T15:38:24.016Z,1.57
2018-09-16T15:40:52.494Z,4.00
2018-09-16T15:43:21.504Z,4.13
2018-09-16T15:45:49.945Z,3.50
2018-09-16T15:48:19.144Z,2.47
2018-09-16T15:50:47.995Z,2.57
2018-09-16T15:53:16.587Z,2.40
2018-09-16T15:55:45.498Z,4.20
2018-09-16T15:58:14.230Z,4.23
2018-09-16T16:00:42.710Z,8.43
2018-09-16T16:03:13.321Z,4.07
2018-09-16T16:05:42.165Z,3.07
2018-09-16T16:08:13.181Z,2.30
2018-09-16T16:10:42.072Z,3.30
2018-09-16T16:13:11.080Z,4.10
2018-09-16T16:15:39.975Z,3.53
2018-09-16T16:18:14.182Z,3.17
2018-09-16T16:20:42.663Z,2.07
2018-09-16T16:23:11.608Z,2.97
2018-09-16T16:25:40.552Z,3.50
2018-09-16T16:31:08.680Z,4.13
2018-09-16T16:33:37.749Z,2.90
2018-09-16T16:36:06.654Z,5.83
2018-09-16T16:38:35.706Z,3.03
2018-09-16T16:41:04.243Z,5.03
2018-09-16T16:43:33.291Z,2.33
2018-09-16T16:46:02.147Z,2.17
2018-09-16T16:48:31.422Z,4.67
2018-09-16T16:51:01.333Z,2.60
2018-09-16T16:53:30.369Z,2.93
2018-09-16T16:55:59.296Z,5.70
2018-09-16T16:58:30.511Z,3.93
2018-09-16T17:01:01.481Z,8.00
2018-09-16T17:03:30.146Z,5.90
2018-09-16T17:05:59.088Z,11.00
2018-09-16T17:08:30.087Z,1.97
2018-09-16T17:11:01.197Z,1.70
2018-09-16T17:13:31.160Z,3.80
2018-09-16T17:15:59.892Z,4.50
2018-09-16T17:18:28.398Z,3.37
2018-09-16T17:20:58.886Z,5.73
2018-09-16T17:23:27.831Z,3.30
2018-09-16T17:25:56.397Z,4.80
2018-09-16T17:28:25.790Z,4.07
2018-09-16T17:30:54.434Z,2.10
2018-09-16T17:33:22.905Z,2.33
2018-09-16T17:35:51.936Z,2.60
2018-09-16T17:38:20.851Z,4.87
2018-09-16T17:40:53.891Z,5.37
2018-09-16T17:43:22.876Z,3.90
2018-09-16T17:45:52.830Z,5.63
2018-09-16T17:48:21.721Z,1.83
2018-09-16T17:50:50.405Z,2.37
2018-09-16T17:53:19.288Z,5.20
2018-09-16T17:55:48.357Z,2.20
2018-09-16T17:58:17.238Z,4.20
2018-09-16T18:00:45.810Z,3.90
2018-09-16T18:03:14.885Z,4.37
2018-09-16T18:05:44.789Z,4.07
2018-09-16T18:08:14.281Z,5.67
2018-09-16T18:10:45.732Z,4.00
2018-09-16T18:13:14.412Z,1.60
2018-09-16T18:15:43.624Z,2.00
2018-09-16T18:18:12.526Z,2.23
2018-09-16T18:20:41.529Z,6.53
2018-09-16T18:23:10.039Z,2.40
2018-09-16T18:25:40.693Z,2.67
2018-09-16T18:28:09.377Z,2.50
2018-09-16T18:30:38.130Z,2.27
2018-09-16T18:33:07.454Z,3.20
2018-09-16T18:35:38.629Z,2.93
2018-09-16T18:38:07.566Z,5.80
2018-09-16T18:40:36.199Z,3.17
2018-09-16T18:43:04.849Z,3.47
2018-09-16T18:45:33.440Z,3.57
2018-09-16T18:48:01.873Z,2.17
2018-09-16T18:50:30.970Z,4.43
2018-09-16T18:53:04.253Z,2.43
2018-09-16T18:55:33.015Z,4.23
2018-09-16T18:58:04.244Z,4.37
2018-09-16T19:00:36.972Z,3.53
2018-09-16T19:03:05.876Z,3.13
2018-09-16T19:05:34.594Z,3.50
2018-09-16T19:08:04.715Z,3.73
2018-09-16T19:10:33.735Z,3.73
2018-09-16T19:13:02.184Z,4.27
2018-09-16T19:15:31.279Z,2.20
2018-09-16T19:17:59.742Z,5.83
2018-09-16T19:20:28.748Z,2.77
2018-09-16T19:22:57.599Z,4.57
2018-09-16T19:25:27.756Z,3.57
2018-09-16T19:27:56.553Z,4.37
2018-09-16T19:30:25.211Z,5.70
2018-09-16T19:32:54.116Z,4.10
2018-09-16T19:35:23.167Z,2.77
2018-09-16T19:37:52.060Z,2.50
2018-09-16T19:40:21.609Z,3.03
2018-09-16T19:42:50.124Z,3.13
2018-09-16T19:45:19.172Z,8.17
2018-09-16T19:47:48.347Z,2.90
2018-09-16T19:50:17.133Z,2.70
2018-09-16T19:52:45.915Z,3.77
2018-09-16T19:55:17.839Z,5.50
2018-09-16T19:57:46.845Z,3.13
2018-09-16T20:00:15.844Z,5.83
2018-09-16T20:02:44.752Z,6.67
2018-09-16T20:05:13.463Z,3.37
2018-09-16T20:07:42.300Z,2.30
2018-09-16T20:10:11.366Z,2.73
2018-09-16T20:12:40.229Z,4.00
2018-09-16T20:15:10.275Z,3.67
2018-09-16T20:17:39.202Z,3.93
2018-09-16T20:20:08.284Z,5.97
2018-09-16T20:22:37.156Z,3.27
2018-09-16T20:25:05.672Z,4.50
2018-09-16T20:27:34.599Z,3.33
2018-09-16T20:30:03.225Z,4.93
2018-09-16T20:32:31.688Z,4.37
2018-09-16T20:35:00.227Z,2.07
2018-09-16T20:37:28.700Z,1.83
2018-09-16T20:39:57.323Z,4.23
2018-09-16T20:42:25.821Z,2.97
2018-09-16T20:44:58.926Z,4.47
2018-09-16T20:47:27.778Z,2.43
2018-09-16T20:49:57.164Z,2.37
2018-09-16T20:52:26.167Z,5.67
2018-09-16T20:54:54.771Z,3.93
2018-09-16T20:57:23.693Z,6.17
2018-09-16T20:59:52.716Z,2.53
2018-09-16T21:02:21.235Z,3.00
2018-09-16T21:04:51.497Z,4.83
2018-09-16T21:07:20.440Z,5.53
2018-09-16T21:09:53.268Z,2.70
2018-09-16T21:12:22.151Z,2.97
2018-09-16T21:14:51.161Z,3.07
2018-09-16T21:17:20.035Z,3.90
2018-09-16T21:19:49.078Z,3.57
2018-09-16T21:22:17.536Z,2.93
2018-09-16T21:24:47.088Z,3.37
2018-09-16T21:27:15.919Z,2.70
2018-09-16T21:29:44.946Z,4.73
2018-09-16T21:32:13.890Z,2.90
2018-09-16T21:34:43.826Z,6.20
2018-09-16T21:37:12.697Z,2.67
2018-09-16T21:39:41.724Z,2.67
2018-09-16T21:42:10.644Z,2.60
2018-09-16T21:44:40.653Z,5.27
2018-09-16T21:47:09.583Z,3.30
2018-09-16T21:49:38.702Z,3.10
2018-09-16T21:52:07.173Z,4.30
2018-09-16T21:54:35.713Z,4.13
2018-09-16T21:57:04.623Z,3.50
2018-09-16T21:59:35.607Z,2.80
2018-09-16T22:02:04.075Z,3.23
2018-09-16T22:04:33.076Z,3.43
2018-09-16T22:07:01.571Z,3.33
2018-09-16T22:09:30.544Z,6.67
2018-09-16T22:11:59.485Z,3.27
2018-09-16T22:14:28.075Z,2.50
2018-09-16T22:16:56.953Z,2.70
2018-09-16T22:19:25.538Z,3.57
2018-09-16T22:21:54.250Z,4.03
2018-09-16T22:24:30.299Z,4.90
2018-09-16T22:26:59.254Z,4.50
2018-09-16T22:29:28.215Z,9.13
2018-09-16T22:31:57.127Z,5.30
2018-09-16T22:34:25.659Z,4.27
2018-09-16T22:36:54.114Z,3.20
2018-09-16T22:39:24.655Z,2.70
2018-09-16T22:41:53.487Z,5.27
2018-09-16T22:44:24.491Z,3.57
2018-09-16T22:46:53.323Z,4.60
2018-09-16T22:49:22.327Z,2.50
2018-09-16T22:51:51.182Z,6.33
2018-09-16T22:54:19.745Z,5.07
2018-09-16T22:56:48.612Z,6.10
2018-09-16T22:59:18.550Z,3.70
2018-09-16T23:01:47.426Z,7.40
2018-09-16T23:04:16.348Z,5.27
2018-09-16T23:06:44.832Z,4.80
2018-09-16T23:09:14.537Z,3.20
2018-09-16T23:11:44.804Z,4.67
2018-09-16T23:14:13.389Z,6.10
2018-09-16T23:16:42.308Z,7.63
2018-09-16T23:19:10.871Z,7.43
2018-09-16T23:21:39.945Z,4.53
2018-09-16T23:24:15.344Z,4.33
2018-09-16T23:26:44.262Z,4.23
2018-09-16T23:29:18.603Z,4.43
2018-09-16T23:31:47.536Z,4.00
2018-09-16T23:34:19.640Z,3.80
2018-09-16T23:36:48.130Z,5.33
2018-09-16T23:39:17.190Z,3.20
2018-09-16T23:41:46.051Z,7.07
2018-09-16T23:44:14.641Z,3.93
2018-09-16T23:46:43.105Z,5.40
2018-09-16T23:49:12.126Z,4.90
2018-09-16T23:51:40.592Z,3.57
2018-09-16T23:54:10.111Z,4.17
2018-09-16T23:56:38.636Z,4.70
2018-09-16T23:59:07.641Z,6.30
